sensor_id;sensor_type;location;lat;lon;timestamp;P1;durP1;ratioP1;P2;durP2;ratioP2
10090;SDS011;5084;51.386;6.778;2023-10-13T07:46:45;12.87;;;8.33;;
10090;SDS011;5084;51.386;6.778;2023-10-13T07:49:22;10.00;;;7.20;;
10090;SDS011;5084;51.386;6.778;2023-10-13T07:51:50;11.73;;;7.50;;
10090;SDS011;5084;51.386;6.778;2023-10-13T07:54:22;9.97;;;7.70;;
10090;SDS011;5084;51.386;6.778;2023-10-13T07:56:48;9.37;;;8.37;;
10090;SDS011;5084;51.386;6.778;2023-10-13T08:06:37;8.73;;;7.93;;
10090;SDS011;5084;51.386;6.778;2023-10-13T08:09:05;12.83;;;8.40;;
10090;SDS011;5084;51.386;6.778;2023-10-13T08:11:53;10.23;;;9.00;;
10090;SDS011;5084;51.386;6.778;2023-10-13T08:14:20;13.77;;;8.53;;
10090;SDS011;5084;51.386;6.778;2023-10-13T08:16:54;13.57;;;8.83;;
10090;SDS011;5084;51.386;6.778;2023-10-13T08:19:21;13.30;;;8.47;;
10090;SDS011;5084;51.386;6.778;2023-10-13T08:21:57;10.47;;;8.03;;
10090;SDS011;5084;51.386;6.778;2023-10-13T08:24:26;9.90;;;8.43;;
10090;SDS011;5084;51.386;6.778;2023-10-13T08:27:17;10.73;;;8.90;;
10090;SDS011;5084;51.386;6.778;2023-10-13T08:30:02;11.33;;;8.27;;
10090;SDS011;5084;51.386;6.778;2023-10-13T08:32:47;12.17;;;9.03;;
10090;SDS011;5084;51.386;6.778;2023-10-13T08:35:22;12.77;;;9.17;;
10090;SDS011;5084;51.386;6.778;2023-10-13T08:37:54;12.60;;;8.17;;
10090;SDS011;5084;51.386;6.778;2023-10-13T08:40:23;11.93;;;8.77;;
10090;SDS011;5084;51.386;6.778;2023-10-13T08:43:27;11.80;;;7.63;;
10090;SDS011;5084;51.386;6.778;2023-10-13T08:46:08;10.07;;;7.97;;
10090;SDS011;5084;51.386;6.778;2023-10-13T08:48:49;13.67;;;9.07;;
10090;SDS011;5084;51.386;6.778;2023-10-13T08:51:15;12.40;;;7.67;;
10090;SDS011;5084;51.386;6.778;2023-10-13T08:53:56;9.50;;;8.40;;
10090;SDS011;5084;51.386;6.778;2023-10-13T08:56:23;13.00;;;8.23;;
10090;SDS011;5084;51.386;6.778;2023-10-13T08:59:00;10.73;;;9.17;;
10090;SDS011;5084;51.386;6.778;2023-10-13T09:01:29;8.57;;;6.87;;
10090;SDS011;5084;51.386;6.778;2023-10-13T09:04:06;12.90;;;7.27;;
10090;SDS011;5084;51.386;6.778;2023-10-13T09:06:53;14.17;;;8.27;;
10090;SDS011;5084;51.386;6.778;2023-10-13T09:09:26;12.40;;;7.10;;
10090;SDS011;5084;51.386;6.778;2023-10-13T09:11:55;10.77;;;7.00;;
10090;SDS011;5084;51.386;6.778;2023-10-13T09:14:40;8.73;;;6.20;;
10090;SDS011;5084;51.386;6.778;2023-10-13T09:17:10;12.27;;;6.90;;
10090;SDS011;5084;51.386;6.778;2023-10-13T09:19:55;7.43;;;5.90;;
10090;SDS011;5084;51.386;6.778;2023-10-13T09:22:28;8.20;;;5.13;;
10090;SDS011;5084;51.386;6.778;2023-10-13T09:25:01;12.20;;;5.83;;
10090;SDS011;5084;51.386;6.778;2023-10-13T09:27:29;9.27;;;6.33;;
10090;SDS011;5084;51.386;6.778;2023-10-13T09:30:00;7.87;;;5.93;;
10090;SDS011;5084;51.386;6.778;2023-10-13T09:32:46;10.20;;;6.00;;
10090;SDS011;5084;51.386;6.778;2023-10-13T09:35:19;7.67;;;5.67;;
10090;SDS011;5084;51.386;6.778;2023-10-13T09:37:52;7.73;;;5.57;;
10090;SDS011;5084;51.386;6.778;2023-10-13T09:40:27;8.47;;;6.70;;
10090;SDS011;5084;51.386;6.778;2023-10-13T09:43:03;9.43;;;6.07;;
10090;SDS011;5084;51.386;6.778;2023-10-13T09:45:35;9.83;;;6.23;;
10090;SDS011;5084;51.386;6.778;2023-10-13T09:48:03;7.00;;;5.70;;
10090;SDS011;5084;51.386;6.778;2023-10-13T09:50:36;6.40;;;5.23;;
10090;SDS011;5084;51.386;6.778;2023-10-13T09:53:03;12.87;;;6.17;;
10090;SDS011;5084;51.386;6.778;2023-10-13T09:55:38;8.60;;;5.63;;
10090;SDS011;5084;51.386;6.778;2023-10-13T09:58:10;11.20;;;7.07;;
10090;SDS011;5084;51.386;6.778;2023-10-13T10:00:42;10.07;;;6.07;;
10090;SDS011;5084;51.386;6.778;2023-10-13T10:03:08;8.70;;;5.63;;
10090;SDS011;5084;51.386;6.778;2023-10-13T10:05:57;6.77;;;5.73;;
10090;SDS011;5084;51.386;6.778;2023-10-13T10:08:43;8.23;;;5.97;;
10090;SDS011;5084;51.386;6.778;2023-10-13T10:16:39;7.07;;;6.37;;
10090;SDS011;5084;51.386;6.778;2023-10-13T10:19:11;7.18;;;6.30;;
10090;SDS011;5084;51.386;6.778;2023-10-13T10:21:37;8.77;;;6.17;;
10090;SDS011;5084;51.386;6.778;2023-10-13T10:24:16;8.63;;;6.00;;
10090;SDS011;5084;51.386;6.778;2023-10-13T10:26:54;8.30;;;6.57;;
10090;SDS011;5084;51.386;6.778;2023-10-13T10:29:20;9.53;;;7.00;;
10090;SDS011;5084;51.386;6.778;2023-10-13T19:04:03;29.00;;;6.13;;
10090;SDS011;5084;51.386;6.778;2023-10-13T22:00:09;7.83;;;6.53;;
10090;SDS011;5084;51.386;6.778;2023-10-13T22:02:45;7.77;;;6.07;;
10090;SDS011;5084;51.386;6.778;2023-10-13T22:05:11;11.23;;;7.60;;
10090;SDS011;5084;51.386;6.778;2023-10-13T22:07:38;9.97;;;7.13;;
10090;SDS011;5084;51.386;6.778;2023-10-13T22:10:04;16.90;;;7.40;;
10090;SDS011;5084;51.386;6.778;2023-10-13T22:12:31;10.13;;;6.80;;
10090;SDS011;5084;51.386;6.778;2023-10-13T22:14:57;9.03;;;6.43;;
10090;SDS011;5084;51.386;6.778;2023-10-13T22:17:27;9.07;;;6.33;;
10090;SDS011;5084;51.386;6.778;2023-10-13T22:19:54;10.60;;;7.67;;
10090;SDS011;5084;51.386;6.778;2023-10-13T22:22:20;10.00;;;7.00;;
10090;SDS011;5084;51.386;6.778;2023-10-13T22:24:47;8.80;;;6.70;;
10090;SDS011;5084;51.386;6.778;2023-10-13T22:27:13;8.73;;;6.40;;
10090;SDS011;5084;51.386;6.778;2023-10-13T22:29:39;9.43;;;8.23;;
10090;SDS011;5084;51.386;6.778;2023-10-13T22:32:08;12.73;;;8.57;;
10090;SDS011;5084;51.386;6.778;2023-10-13T22:34:34;11.83;;;7.10;;
10090;SDS011;5084;51.386;6.778;2023-10-13T22:37:00;11.60;;;6.83;;
10090;SDS011;5084;51.386;6.778;2023-10-13T22:39:26;12.53;;;7.23;;
10090;SDS011;5084;51.386;6.778;2023-10-13T22:41:58;12.80;;;7.37;;
10090;SDS011;5084;51.386;6.778;2023-10-13T22:44:24;11.20;;;7.63;;
10090;SDS011;5084;51.386;6.778;2023-10-13T22:46:50;10.30;;;6.97;;
10090;SDS011;5084;51.386;6.778;2023-10-13T22:49:18;7.87;;;6.50;;
10090;SDS011;5084;51.386;6.778;2023-10-13T22:51:46;9.43;;;6.60;;
10090;SDS011;5084;51.386;6.778;2023-10-13T22:54:13;11.13;;;7.83;;
10090;SDS011;5084;51.386;6.778;2023-10-13T22:56:40;11.63;;;7.13;;
10090;SDS011;5084;51.386;6.778;2023-10-13T22:59:07;14.43;;;7.03;;
10090;SDS011;5084;51.386;6.778;2023-10-13T23:01:39;10.57;;;8.03;;
10090;SDS011;5084;51.386;6.778;2023-10-13T23:04:11;10.10;;;6.80;;
10090;SDS011;5084;51.386;6.778;2023-10-13T23:06:39;9.20;;;7.60;;
10090;SDS011;5084;51.386;6.778;2023-10-13T23:09:11;9.13;;;7.27;;
10090;SDS011;5084;51.386;6.778;2023-10-13T23:11:40;13.97;;;8.07;;
10090;SDS011;5084;51.386;6.778;2023-10-13T23:14:12;11.40;;;7.73;;
10090;SDS011;5084;51.386;6.778;2023-10-13T23:16:39;11.00;;;7.10;;
10090;SDS011;5084;51.386;6.778;2023-10-13T23:19:05;10.90;;;9.00;;
10090;SDS011;5084;51.386;6.778;2023-10-13T23:21:31;10.43;;;6.70;;
10090;SDS011;5084;51.386;6.778;2023-10-13T23:23:57;11.07;;;8.13;;
10090;SDS011;5084;51.386;6.778;2023-10-13T23:26:24;9.03;;;7.20;;
10090;SDS011;5084;51.386;6.778;2023-10-13T23:28:53;10.10;;;7.53;;
10090;SDS011;5084;51.386;6.778;2023-10-13T23:31:20;10.17;;;8.17;;
10090;SDS011;5084;51.386;6.778;2023-10-13T23:33:48;10.80;;;7.60;;
10090;SDS011;5084;51.386;6.778;2023-10-13T23:36:14;11.03;;;7.63;;
10090;SDS011;5084;51.386;6.778;2023-10-13T23:38:41;11.40;;;7.80;;
10090;SDS011;5084;51.386;6.778;2023-10-13T23:41:17;14.43;;;8.23;;
10090;SDS011;5084;51.386;6.778;2023-10-13T23:43:43;12.07;;;8.23;;
10090;SDS011;5084;51.386;6.778;2023-10-13T23:46:14;10.37;;;7.60;;
10090;SDS011;5084;51.386;6.778;2023-10-13T23:48:41;9.00;;;7.70;;
10090;SDS011;5084;51.386;6.778;2023-10-13T23:51:08;9.63;;;7.97;;
10090;SDS011;5084;51.386;6.778;2023-10-13T23:53:36;10.70;;;8.23;;
10090;SDS011;5084;51.386;6.778;2023-10-13T23:56:05;11.40;;;7.87;;
10090;SDS011;5084;51.386;6.778;2023-10-13T23:58:38;10.13;;;7.93;;
